sensor_id;sensor_type;location;lat;lon;timestamp;P1;durP1;ratioP1;P2;durP2;ratioP2
33644;SDS011;19986;48.190;16.366;2024-03-17T00:00:37;39.63;;;37.92;;
33644;SDS011;19986;48.190;16.366;2024-03-17T00:03:06;40.95;;;39.15;;
33644;SDS011;19986;48.190;16.366;2024-03-17T00:05:35;40.72;;;38.92;;
33644;SDS011;19986;48.190;16.366;2024-03-17T00:08:01;39.03;;;37.22;;
33644;SDS011;19986;48.190;16.366;2024-03-17T00:10:33;42.20;;;40.25;;
33644;SDS011;19986;48.190;16.366;2024-03-17T00:12:59;40.50;;;38.70;;
33644;SDS011;19986;48.190;16.366;2024-03-17T00:15:26;39.20;;;37.40;;
33644;SDS011;19986;48.190;16.366;2024-03-17T00:17:52;39.35;;;37.60;;
33644;SDS011;19986;48.190;16.366;2024-03-17T00:20:18;41.65;;;39.85;;
33644;SDS011;19986;48.190;16.366;2024-03-17T00:22:55;42.90;;;40.97;;
33644;SDS011;19986;48.190;16.366;2024-03-17T00:25:22;40.60;;;38.75;;
33644;SDS011;19986;48.190;16.366;2024-03-17T00:27:48;39.33;;;37.63;;
33644;SDS011;19986;48.190;16.366;2024-03-17T00:30:16;39.55;;;37.75;;
33644;SDS011;19986;48.190;16.366;2024-03-17T00:32:43;43.10;;;41.20;;
33644;SDS011;19986;48.190;16.366;2024-03-17T00:35:09;43.08;;;41.08;;
33644;SDS011;19986;48.190;16.366;2024-03-17T00:37:39;43.63;;;41.63;;
33644;SDS011;19986;48.190;16.366;2024-03-17T00:40:07;41.13;;;39.22;;
33644;SDS011;19986;48.190;16.366;2024-03-17T00:42:33;42.70;;;40.72;;
33644;SDS011;19986;48.190;16.366;2024-03-17T00:44:59;43.22;;;41.20;;
33644;SDS011;19986;48.190;16.366;2024-03-17T00:47:28;41.72;;;39.83;;
33644;SDS011;19986;48.190;16.366;2024-03-17T00:49:54;41.38;;;39.47;;
33644;SDS011;19986;48.190;16.366;2024-03-17T00:52:25;44.83;;;42.83;;
33644;SDS011;19986;48.190;16.366;2024-03-17T00:54:52;42.50;;;40.60;;
33644;SDS011;19986;48.190;16.366;2024-03-17T00:57:19;40.90;;;39.05;;
33644;SDS011;19986;48.190;16.366;2024-03-17T00:59:47;44.47;;;42.47;;
33644;SDS011;19986;48.190;16.366;2024-03-17T01:02:15;43.65;;;41.65;;
33644;SDS011;19986;48.190;16.366;2024-03-17T01:04:42;42.78;;;40.88;;
33644;SDS011;19986;48.190;16.366;2024-03-17T01:07:09;42.05;;;40.15;;
33644;SDS011;19986;48.190;16.366;2024-03-17T01:09:36;42.25;;;40.35;;
33644;SDS011;19986;48.190;16.366;2024-03-17T01:12:02;42.88;;;40.95;;
33644;SDS011;19986;48.190;16.366;2024-03-17T01:14:28;39.55;;;37.75;;
33644;SDS011;19986;48.190;16.366;2024-03-17T01:16:55;42.30;;;40.30;;
33644;SDS011;19986;48.190;16.366;2024-03-17T01:19:22;44.65;;;42.45;;
33644;SDS011;19986;48.190;16.366;2024-03-17T01:21:48;44.50;;;42.50;;
33644;SDS011;19986;48.190;16.366;2024-03-17T01:24:14;43.83;;;41.83;;
33644;SDS011;19986;48.190;16.366;2024-03-17T01:26:41;45.15;;;43.05;;
33644;SDS011;19986;48.190;16.366;2024-03-17T01:29:07;44.97;;;42.88;;
33644;SDS011;19986;48.190;16.366;2024-03-17T01:31:34;44.67;;;42.58;;
33644;SDS011;19986;48.190;16.366;2024-03-17T01:34:00;44.10;;;42.00;;
33644;SDS011;19986;48.190;16.366;2024-03-17T01:36:26;44.53;;;42.50;;
33644;SDS011;19986;48.190;16.366;2024-03-17T01:38:53;43.47;;;41.47;;
33644;SDS011;19986;48.190;16.366;2024-03-17T01:41:19;44.70;;;42.60;;
33644;SDS011;19986;48.190;16.366;2024-03-17T01:43:46;44.78;;;42.67;;
33644;SDS011;19986;48.190;16.366;2024-03-17T01:46:13;45.15;;;42.92;;
33644;SDS011;19986;48.190;16.366;2024-03-17T01:48:40;44.80;;;42.60;;
33644;SDS011;19986;48.190;16.366;2024-03-17T01:51:10;45.05;;;42.95;;
33644;SDS011;19986;48.190;16.366;2024-03-17T01:53:38;42.22;;;40.22;;
33644;SDS011;19986;48.190;16.366;2024-03-17T01:56:06;43.13;;;41.13;;
33644;SDS011;19986;48.190;16.366;2024-03-17T01:58:34;42.90;;;40.90;;
33644;SDS011;19986;48.190;16.366;2024-03-17T02:01:03;45.30;;;43.10;;
33644;SDS011;19986;48.190;16.366;2024-03-17T02:03:30;45.45;;;43.25;;
33644;SDS011;19986;48.190;16.366;2024-03-17T02:05:58;43.17;;;41.15;;
33644;SDS011;19986;48.190;16.366;2024-03-17T02:08:24;46.22;;;43.92;;
33644;SDS011;19986;48.190;16.366;2024-03-17T02:10:54;44.47;;;42.22;;
33644;SDS011;19986;48.190;16.366;2024-03-17T02:13:21;46.58;;;44.13;;
33644;SDS011;19986;48.190;16.366;2024-03-17T02:15:48;45.60;;;43.35;;
33644;SDS011;19986;48.190;16.366;2024-03-17T02:18:15;42.85;;;40.65;;
33644;SDS011;19986;48.190;16.366;2024-03-17T02:20:50;44.83;;;42.50;;
33644;SDS011;19986;48.190;16.366;2024-03-17T02:23:28;46.90;;;44.35;;
33644;SDS011;19986;48.190;16.366;2024-03-17T02:25:59;46.25;;;43.75;;
33644;SDS011;19986;48.190;16.366;2024-03-17T02:28:26;46.35;;;43.92;;
33644;SDS011;19986;48.190;16.366;2024-03-17T02:30:52;45.65;;;43.30;;
33644;SDS011;19986;48.190;16.366;2024-03-17T02:33:18;46.63;;;44.20;;
33644;SDS011;19986;48.190;16.366;2024-03-17T02:35:44;46.60;;;43.97;;
33644;SDS011;19986;48.190;16.366;2024-03-17T02:38:10;45.35;;;42.92;;
33644;SDS011;19986;48.190;16.366;2024-03-17T02:41:01;45.20;;;43.00;;
33644;SDS011;19986;48.190;16.366;2024-03-17T02:43:30;47.17;;;44.67;;
33644;SDS011;19986;48.190;16.366;2024-03-17T02:45:56;45.88;;;43.45;;
33644;SDS011;19986;48.190;16.366;2024-03-17T02:48:22;45.78;;;43.38;;
33644;SDS011;19986;48.190;16.366;2024-03-17T02:50:48;47.28;;;44.88;;
33644;SDS011;19986;48.190;16.366;2024-03-17T02:53:14;46.00;;;43.60;;
33644;SDS011;19986;48.190;16.366;2024-03-17T02:55:40;46.47;;;43.97;;
33644;SDS011;19986;48.190;16.366;2024-03-17T02:58:06;44.28;;;41.88;;
33644;SDS011;19986;48.190;16.366;2024-03-17T03:00:32;46.42;;;43.83;;
33644;SDS011;19986;48.190;16.366;2024-03-17T03:02:58;44.90;;;42.50;;
33644;SDS011;19986;48.190;16.366;2024-03-17T03:05:23;47.63;;;45.17;;
33644;SDS011;19986;48.190;16.366;2024-03-17T03:07:50;47.15;;;44.60;;
33644;SDS011;19986;48.190;16.366;2024-03-17T03:10:17;46.83;;;44.25;;
33644;SDS011;19986;48.190;16.366;2024-03-17T03:12:43;47.33;;;44.92;;
33644;SDS011;19986;48.190;16.366;2024-03-17T03:15:09;47.13;;;44.60;;
33644;SDS011;19986;48.190;16.366;2024-03-17T03:17:34;45.83;;;43.47;;
33644;SDS011;19986;48.190;16.366;2024-03-17T03:20:00;45.83;;;43.20;;
33644;SDS011;19986;48.190;16.366;2024-03-17T03:22:26;47.97;;;45.47;;
33644;SDS011;19986;48.190;16.366;2024-03-17T03:24:52;45.60;;;43.30;;
33644;SDS011;19986;48.190;16.366;2024-03-17T03:27:18;45.53;;;43.03;;
33644;SDS011;19986;48.190;16.366;2024-03-17T03:29:44;47.33;;;44.80;;
33644;SDS011;19986;48.190;16.366;2024-03-17T03:32:10;46.40;;;43.90;;
33644;SDS011;19986;48.190;16.366;2024-03-17T03:34:35;44.55;;;42.05;;
33644;SDS011;19986;48.190;16.366;2024-03-17T03:37:01;46.15;;;43.55;;
33644;SDS011;19986;48.190;16.366;2024-03-17T03:39:27;46.33;;;43.83;;
33644;SDS011;19986;48.190;16.366;2024-03-17T03:41:57;47.40;;;44.90;;
33644;SDS011;19986;48.190;16.366;2024-03-17T03:44:24;47.13;;;44.60;;
33644;SDS011;19986;48.190;16.366;2024-03-17T03:46:50;44.00;;;41.70;;
33644;SDS011;19986;48.190;16.366;2024-03-17T03:49:18;47.10;;;44.53;;
33644;SDS011;19986;48.190;16.366;2024-03-17T03:51:44;47.22;;;44.83;;
33644;SDS011;19986;48.190;16.366;2024-03-17T03:54:10;45.67;;;43.30;;
33644;SDS011;19986;48.190;16.366;2024-03-17T03:56:37;47.80;;;45.33;;
33644;SDS011;19986;48.190;16.366;2024-03-17T03:59:03;46.42;;;43.80;;
33644;SDS011;19986;48.190;16.366;2024-03-17T04:01:30;45.72;;;43.20;;
33644;SDS011;19986;48.190;16.366;2024-03-17T04:03:56;45.28;;;42.88;;
33644;SDS011;19986;48.190;16.366;2024-03-17T04:06:22;45.05;;;42.78;;
33644;SDS011;19986;48.190;16.366;2024-03-17T04:08:48;46.22;;;43.75;;
33644;SDS011;19986;48.190;16.366;2024-03-17T04:11:14;46.80;;;44.30;;
33644;SDS011;19986;48.190;16.366;2024-03-17T04:13:41;47.47;;;44.95;;
33644;SDS011;19986;48.190;16.366;2024-03-17T04:16:07;47.95;;;45.55;;
33644;SDS011;19986;48.190;16.366;2024-03-17T04:18:33;46.78;;;44.20;;
33644;SDS011;19986;48.190;16.366;2024-03-17T04:21:03;48.88;;;46.17;;
33644;SDS011;19986;48.190;16.366;2024-03-17T04:23:31;47.75;;;45.15;;
33644;SDS011;19986;48.190;16.366;2024-03-17T04:25:57;47.63;;;45.05;;
33644;SDS011;19986;48.190;16.366;2024-03-17T04:28:24;46.10;;;43.75;;
33644;SDS011;19986;48.190;16.366;2024-03-17T04:30:50;49.03;;;46.33;;
33644;SDS011;19986;48.190;16.366;2024-03-17T04:33:16;49.10;;;46.40;;
33644;SDS011;19986;48.190;16.366;2024-03-17T04:35:42;46.10;;;43.70;;
33644;SDS011;19986;48.190;16.366;2024-03-17T04:38:09;48.17;;;45.60;;
33644;SDS011;19986;48.190;16.366;2024-03-17T04:40:41;45.83;;;43.47;;
33644;SDS011;19986;48.190;16.366;2024-03-17T04:43:07;47.63;;;45.28;;
33644;SDS011;19986;48.190;16.366;2024-03-17T04:45:34;45.53;;;43.13;;
33644;SDS011;19986;48.190;16.366;2024-03-17T04:48:01;45.80;;;43.30;;
33644;SDS011;19986;48.190;16.366;2024-03-17T04:50:27;44.92;;;42.70;;
33644;SDS011;19986;48.190;16.366;2024-03-17T04:52:57;44.75;;;42.30;;
33644;SDS011;19986;48.190;16.366;2024-03-17T04:55:25;45.22;;;42.63;;
33644;SDS011;19986;48.190;16.366;2024-03-17T04:57:52;47.90;;;45.35;;
33644;SDS011;19986;48.190;16.366;2024-03-17T05:00:18;47.80;;;45.30;;
33644;SDS011;19986;48.190;16.366;2024-03-17T05:02:44;46.53;;;43.92;;
33644;SDS011;19986;48.190;16.366;2024-03-17T05:05:11;43.95;;;41.55;;
33644;SDS011;19986;48.190;16.366;2024-03-17T05:07:38;46.58;;;44.08;;
33644;SDS011;19986;48.190;16.366;2024-03-17T05:10:04;45.90;;;43.50;;
33644;SDS011;19986;48.190;16.366;2024-03-17T05:12:35;48.03;;;45.50;;
33644;SDS011;19986;48.190;16.366;2024-03-17T05:15:01;48.85;;;46.25;;
33644;SDS011;19986;48.190;16.366;2024-03-17T05:17:27;47.90;;;45.15;;
33644;SDS011;19986;48.190;16.366;2024-03-17T05:19:53;48.63;;;46.03;;
33644;SDS011;19986;48.190;16.366;2024-03-17T05:22:18;47.15;;;44.65;;
33644;SDS011;19986;48.190;16.366;2024-03-17T05:24:46;47.00;;;44.17;;
33644;SDS011;19986;48.190;16.366;2024-03-17T05:27:15;47.40;;;44.70;;
33644;SDS011;19986;48.190;16.366;2024-03-17T05:29:43;46.15;;;43.60;;
33644;SDS011;19986;48.190;16.366;2024-03-17T05:32:09;46.00;;;43.22;;
33644;SDS011;19986;48.190;16.366;2024-03-17T05:34:35;46.30;;;43.72;;
33644;SDS011;19986;48.190;16.366;2024-03-17T05:37:03;46.67;;;44.17;;
33644;SDS011;19986;48.190;16.366;2024-03-17T05:39:33;48.33;;;45.75;;
33644;SDS011;19986;48.190;16.366;2024-03-17T05:41:59;48.92;;;46.35;;
33644;SDS011;19986;48.190;16.366;2024-03-17T05:44:25;44.45;;;41.95;;
33644;SDS011;19986;48.190;16.366;2024-03-17T05:46:51;43.78;;;41.30;;
33644;SDS011;19986;48.190;16.366;2024-03-17T05:49:19;44.47;;;42.08;;
33644;SDS011;19986;48.190;16.366;2024-03-17T05:51:46;45.53;;;42.97;;
33644;SDS011;19986;48.190;16.366;2024-03-17T05:54:12;46.53;;;44.03;;
33644;SDS011;19986;48.190;16.366;2024-03-17T05:56:38;45.88;;;43.58;;
33644;SDS011;19986;48.190;16.366;2024-03-17T05:59:04;46.90;;;44.38;;
33644;SDS011;19986;48.190;16.366;2024-03-17T06:01:30;46.17;;;43.67;;
33644;SDS011;19986;48.190;16.366;2024-03-17T06:03:57;44.22;;;41.90;;
33644;SDS011;19986;48.190;16.366;2024-03-17T06:06:24;47.45;;;44.53;;
33644;SDS011;19986;48.190;16.366;2024-03-17T06:08:50;44.25;;;41.85;;
33644;SDS011;19986;48.190;16.366;2024-03-17T06:11:16;45.53;;;43.03;;
33644;SDS011;19986;48.190;16.366;2024-03-17T06:13:42;45.47;;;42.85;;
33644;SDS011;19986;48.190;16.366;2024-03-17T06:16:08;44.63;;;42.25;;
33644;SDS011;19986;48.190;16.366;2024-03-17T06:18:34;46.15;;;43.65;;
33644;SDS011;19986;48.190;16.366;2024-03-17T06:21:00;44.83;;;42.33;;
33644;SDS011;19986;48.190;16.366;2024-03-17T06:23:30;45.55;;;42.85;;
33644;SDS011;19986;48.190;16.366;2024-03-17T06:25:56;47.88;;;45.38;;
33644;SDS011;19986;48.190;16.366;2024-03-17T06:28:22;47.47;;;44.88;;
33644;SDS011;19986;48.190;16.366;2024-03-17T06:30:58;43.75;;;41.30;;
33644;SDS011;19986;48.190;16.366;2024-03-17T06:33:24;45.65;;;42.95;;
33644;SDS011;19986;48.190;16.366;2024-03-17T06:35:51;42.95;;;40.65;;
33644;SDS011;19986;48.190;16.366;2024-03-17T06:38:17;45.22;;;42.92;;
33644;SDS011;19986;48.190;16.366;2024-03-17T06:40:50;46.13;;;43.47;;
33644;SDS011;19986;48.190;16.366;2024-03-17T06:43:16;44.25;;;41.95;;
33644;SDS011;19986;48.190;16.366;2024-03-17T06:45:43;44.95;;;42.55;;
33644;SDS011;19986;48.190;16.366;2024-03-17T06:48:18;46.28;;;43.67;;
33644;SDS011;19986;48.190;16.366;2024-03-17T06:50:44;43.67;;;41.38;;
33644;SDS011;19986;48.190;16.366;2024-03-17T06:53:10;44.35;;;42.00;;
33644;SDS011;19986;48.190;16.366;2024-03-17T06:55:36;43.65;;;41.33;;
33644;SDS011;19986;48.190;16.366;2024-03-17T06:58:02;44.65;;;41.90;;
33644;SDS011;19986;48.190;16.366;2024-03-17T07:00:28;45.85;;;43.35;;
33644;SDS011;19986;48.190;16.366;2024-03-17T07:02:54;43.33;;;41.00;;
33644;SDS011;19986;48.190;16.366;2024-03-17T07:05:20;45.17;;;42.67;;
33644;SDS011;19986;48.190;16.366;2024-03-17T07:07:46;43.72;;;41.58;;
33644;SDS011;19986;48.190;16.366;2024-03-17T07:10:12;44.92;;;42.47;;
33644;SDS011;19986;48.190;16.366;2024-03-17T07:12:38;42.45;;;40.20;;
33644;SDS011;19986;48.190;16.366;2024-03-17T07:15:07;41.47;;;39.33;;
33644;SDS011;19986;48.190;16.366;2024-03-17T07:17:33;44.17;;;41.97;;
33644;SDS011;19986;48.190;16.366;2024-03-17T07:20:00;42.70;;;40.33;;
33644;SDS011;19986;48.190;16.366;2024-03-17T07:22:26;44.97;;;42.63;;
33644;SDS011;19986;48.190;16.366;2024-03-17T07:24:53;42.33;;;40.15;;
33644;SDS011;19986;48.190;16.366;2024-03-17T07:27:26;41.25;;;38.90;;
33644;SDS011;19986;48.190;16.366;2024-03-17T07:29:52;44.25;;;41.72;;
33644;SDS011;19986;48.190;16.366;2024-03-17T07:32:18;44.40;;;42.20;;
33644;SDS011;19986;48.190;16.366;2024-03-17T07:34:45;44.50;;;42.25;;
33644;SDS011;19986;48.190;16.366;2024-03-17T07:37:13;44.47;;;41.97;;
33644;SDS011;19986;48.190;16.366;2024-03-17T07:39:40;43.33;;;40.95;;
33644;SDS011;19986;48.190;16.366;2024-03-17T07:42:06;42.10;;;39.80;;
33644;SDS011;19986;48.190;16.366;2024-03-17T07:44:32;43.60;;;41.40;;
33644;SDS011;19986;48.190;16.366;2024-03-17T07:47:01;43.80;;;41.55;;
33644;SDS011;19986;48.190;16.366;2024-03-17T07:49:29;45.47;;;42.88;;
33644;SDS011;19986;48.190;16.366;2024-03-17T07:51:57;42.15;;;39.90;;
33644;SDS011;19986;48.190;16.366;2024-03-17T07:54:25;44.15;;;41.90;;
33644;SDS011;19986;48.190;16.366;2024-03-17T07:56:51;42.80;;;40.47;;
33644;SDS011;19986;48.190;16.366;2024-03-17T07:59:19;43.78;;;41.47;;
33644;SDS011;19986;48.190;16.366;2024-03-17T08:01:45;43.83;;;41.63;;
33644;SDS011;19986;48.190;16.366;2024-03-17T08:04:14;42.47;;;40.13;;
33644;SDS011;19986;48.190;16.366;2024-03-17T08:06:40;45.22;;;42.83;;
33644;SDS011;19986;48.190;16.366;2024-03-17T08:09:07;41.92;;;39.75;;
33644;SDS011;19986;48.190;16.366;2024-03-17T08:11:34;45.42;;;43.05;;
33644;SDS011;19986;48.190;16.366;2024-03-17T08:14:00;44.47;;;42.08;;
33644;SDS011;19986;48.190;16.366;2024-03-17T08:16:27;41.72;;;39.58;;
33644;SDS011;19986;48.190;16.366;2024-03-17T08:18:54;42.72;;;40.25;;
33644;SDS011;19986;48.190;16.366;2024-03-17T08:21:22;43.58;;;41.25;;
33644;SDS011;19986;48.190;16.366;2024-03-17T08:23:49;41.83;;;39.80;;
33644;SDS011;19986;48.190;16.366;2024-03-17T08:26:15;44.65;;;42.35;;
33644;SDS011;19986;48.190;16.366;2024-03-17T08:28:44;43.10;;;40.83;;
33644;SDS011;19986;48.190;16.366;2024-03-17T08:31:11;41.00;;;38.90;;
33644;SDS011;19986;48.190;16.366;2024-03-17T08:33:38;42.00;;;39.88;;
33644;SDS011;19986;48.190;16.366;2024-03-17T08:36:04;44.13;;;41.85;;
33644;SDS011;19986;48.190;16.366;2024-03-17T08:38:34;42.92;;;40.83;;
33644;SDS011;19986;48.190;16.366;2024-03-17T08:41:05;42.13;;;39.92;;
33644;SDS011;19986;48.190;16.366;2024-03-17T08:43:32;42.60;;;40.30;;
33644;SDS011;19986;48.190;16.366;2024-03-17T08:46:01;44.38;;;41.97;;
33644;SDS011;19986;48.190;16.366;2024-03-17T08:48:31;43.38;;;41.20;;
33644;SDS011;19986;48.190;16.366;2024-03-17T08:50:58;41.67;;;39.67;;
33644;SDS011;19986;48.190;16.366;2024-03-17T08:53:25;44.75;;;42.45;;
33644;SDS011;19986;48.190;16.366;2024-03-17T08:55:52;42.30;;;40.10;;
33644;SDS011;19986;48.190;16.366;2024-03-17T08:58:19;43.13;;;40.58;;
33644;SDS011;19986;48.190;16.366;2024-03-17T09:00:45;40.20;;;38.20;;
33644;SDS011;19986;48.190;16.366;2024-03-17T09:03:12;42.33;;;40.22;;
33644;SDS011;19986;48.190;16.366;2024-03-17T09:05:41;42.70;;;40.58;;
33644;SDS011;19986;48.190;16.366;2024-03-17T09:08:15;39.85;;;37.80;;
33644;SDS011;19986;48.190;16.366;2024-03-17T09:10:47;42.50;;;40.40;;
33644;SDS011;19986;48.190;16.366;2024-03-17T09:13:14;39.60;;;37.53;;
33644;SDS011;19986;48.190;16.366;2024-03-17T09:18:17;41.08;;;38.88;;
33644;SDS011;19986;48.190;16.366;2024-03-17T09:20:42;43.40;;;41.20;;
33644;SDS011;19986;48.190;16.366;2024-03-17T09:23:09;40.58;;;38.67;;
33644;SDS011;19986;48.190;16.366;2024-03-17T09:25:35;41.78;;;39.78;;
33644;SDS011;19986;48.190;16.366;2024-03-17T09:28:00;41.63;;;39.53;;
33644;SDS011;19986;48.190;16.366;2024-03-17T09:30:27;40.38;;;38.20;;
33644;SDS011;19986;48.190;16.366;2024-03-17T09:32:54;41.42;;;39.33;;
33644;SDS011;19986;48.190;16.366;2024-03-17T09:35:20;43.35;;;41.15;;
33644;SDS011;19986;48.190;16.366;2024-03-17T09:37:46;42.83;;;40.72;;
33644;SDS011;19986;48.190;16.366;2024-03-17T09:40:13;41.50;;;39.60;;
33644;SDS011;19986;48.190;16.366;2024-03-17T09:42:40;41.40;;;39.33;;
33644;SDS011;19986;48.190;16.366;2024-03-17T09:45:11;42.90;;;40.78;;
33644;SDS011;19986;48.190;16.366;2024-03-17T09:47:40;42.50;;;40.33;;
33644;SDS011;19986;48.190;16.366;2024-03-17T09:50:12;41.47;;;39.38;;
33644;SDS011;19986;48.190;16.366;2024-03-17T09:52:40;43.13;;;40.92;;
33644;SDS011;19986;48.190;16.366;2024-03-17T09:55:09;42.05;;;39.88;;
33644;SDS011;19986;48.190;16.366;2024-03-17T09:57:47;42.88;;;40.80;;
33644;SDS011;19986;48.190;16.366;2024-03-17T10:00:14;39.60;;;37.50;;
33644;SDS011;19986;48.190;16.366;2024-03-17T10:02:43;38.25;;;36.35;;
33644;SDS011;19986;48.190;16.366;2024-03-17T10:05:22;43.15;;;41.08;;
33644;SDS011;19986;48.190;16.366;2024-03-17T10:07:50;43.42;;;41.33;;
33644;SDS011;19986;48.190;16.366;2024-03-17T10:10:17;41.15;;;39.10;;
33644;SDS011;19986;48.190;16.366;2024-03-17T10:12:49;39.13;;;37.22;;
33644;SDS011;19986;48.190;16.366;2024-03-17T10:15:19;42.63;;;40.60;;
33644;SDS011;19986;48.190;16.366;2024-03-17T10:17:53;41.33;;;39.33;;
33644;SDS011;19986;48.190;16.366;2024-03-17T10:20:20;40.75;;;38.75;;
33644;SDS011;19986;48.190;16.366;2024-03-17T10:23:05;42.08;;;40.03;;
33644;SDS011;19986;48.190;16.366;2024-03-17T10:25:39;40.60;;;38.70;;
33644;SDS011;19986;48.190;16.366;2024-03-17T10:28:12;40.47;;;38.47;;
33644;SDS011;19986;48.190;16.366;2024-03-17T10:30:41;41.10;;;39.13;;
33644;SDS011;19986;48.190;16.366;2024-03-17T10:33:08;41.47;;;39.47;;
33644;SDS011;19986;48.190;16.366;2024-03-17T10:36:03;40.72;;;38.72;;
33644;SDS011;19986;48.190;16.366;2024-03-17T10:38:30;41.58;;;39.38;;
33644;SDS011;19986;48.190;16.366;2024-03-17T10:40:58;39.13;;;37.13;;
33644;SDS011;19986;48.190;16.366;2024-03-17T10:43:24;43.17;;;41.15;;
33644;SDS011;19986;48.190;16.366;2024-03-17T10:45:53;43.28;;;41.10;;
33644;SDS011;19986;48.190;16.366;2024-03-17T10:48:23;40.53;;;38.63;;
33644;SDS011;19986;48.190;16.366;2024-03-17T10:50:57;42.58;;;40.47;;
33644;SDS011;19986;48.190;16.366;2024-03-17T10:53:27;42.08;;;40.08;;
33644;SDS011;19986;48.190;16.366;2024-03-17T10:56:04;40.75;;;38.85;;
33644;SDS011;19986;48.190;16.366;2024-03-17T10:58:42;43.67;;;41.47;;
33644;SDS011;19986;48.190;16.366;2024-03-17T11:01:20;43.08;;;40.75;;
33644;SDS011;19986;48.190;16.366;2024-03-17T11:03:46;42.72;;;40.67;;
33644;SDS011;19986;48.190;16.366;2024-03-17T11:06:14;41.78;;;39.78;;
33644;SDS011;19986;48.190;16.366;2024-03-17T11:08:42;39.92;;;38.10;;
33644;SDS011;19986;48.190;16.366;2024-03-17T11:11:09;41.70;;;39.60;;
33644;SDS011;19986;48.190;16.366;2024-03-17T11:13:38;40.65;;;38.70;;
33644;SDS011;19986;48.190;16.366;2024-03-17T11:16:04;40.75;;;38.67;;
33644;SDS011;19986;48.190;16.366;2024-03-17T11:18:53;39.60;;;37.70;;
33644;SDS011;19986;48.190;16.366;2024-03-17T11:21:32;38.40;;;36.60;;
33644;SDS011;19986;48.190;16.366;2024-03-17T11:24:02;40.40;;;38.40;;
33644;SDS011;19986;48.190;16.366;2024-03-17T11:26:29;38.95;;;37.05;;
33644;SDS011;19986;48.190;16.366;2024-03-17T11:28:57;41.20;;;39.10;;
33644;SDS011;19986;48.190;16.366;2024-03-17T11:31:32;41.88;;;39.97;;
33644;SDS011;19986;48.190;16.366;2024-03-17T11:34:27;41.95;;;39.95;;
33644;SDS011;19986;48.190;16.366;2024-03-17T11:36:56;40.33;;;38.40;;
33644;SDS011;19986;48.190;16.366;2024-03-17T11:42:15;40.78;;;38.83;;
33644;SDS011;19986;48.190;16.366;2024-03-17T11:44:43;39.92;;;37.83;;
33644;SDS011;19986;48.190;16.366;2024-03-17T11:47:18;41.70;;;39.38;;
33644;SDS011;19986;48.190;16.366;2024-03-17T11:49:44;40.63;;;38.72;;
33644;SDS011;19986;48.190;16.366;2024-03-17T11:52:15;41.40;;;39.05;;
33644;SDS011;19986;48.190;16.366;2024-03-17T11:57:26;40.13;;;38.22;;
33644;SDS011;19986;48.190;16.366;2024-03-17T11:59:58;40.55;;;38.50;;
33644;SDS011;19986;48.190;16.366;2024-03-17T12:02:31;39.45;;;37.63;;
33644;SDS011;19986;48.190;16.366;2024-03-17T12:04:58;42.30;;;40.17;;
33644;SDS011;19986;48.190;16.366;2024-03-17T12:07:26;41.55;;;39.65;;
33644;SDS011;19986;48.190;16.366;2024-03-17T12:09:57;39.88;;;37.97;;
33644;SDS011;19986;48.190;16.366;2024-03-17T12:12:24;38.85;;;37.05;;
33644;SDS011;19986;48.190;16.366;2024-03-17T12:14:59;40.22;;;38.03;;
33644;SDS011;19986;48.190;16.366;2024-03-17T12:17:44;41.47;;;39.45;;
33644;SDS011;19986;48.190;16.366;2024-03-17T12:20:16;37.30;;;35.58;;
33644;SDS011;19986;48.190;16.366;2024-03-17T12:22:44;38.92;;;37.00;;
33644;SDS011;19986;48.190;16.366;2024-03-17T12:25:16;41.85;;;39.78;;
33644;SDS011;19986;48.190;16.366;2024-03-17T12:27:46;40.30;;;38.45;;
33644;SDS011;19986;48.190;16.366;2024-03-17T12:30:14;42.38;;;40.38;;
33644;SDS011;19986;48.190;16.366;2024-03-17T12:32:41;40.13;;;38.22;;
33644;SDS011;19986;48.190;16.366;2024-03-17T12:35:16;40.85;;;38.85;;
33644;SDS011;19986;48.190;16.366;2024-03-17T12:37:43;40.35;;;38.38;;
33644;SDS011;19986;48.190;16.366;2024-03-17T12:40:19;40.50;;;38.42;;
33644;SDS011;19986;48.190;16.366;2024-03-17T12:42:49;40.72;;;38.72;;
33644;SDS011;19986;48.190;16.366;2024-03-17T12:45:18;40.30;;;38.30;;
33644;SDS011;19986;48.190;16.366;2024-03-17T12:47:49;41.00;;;39.00;;
33644;SDS011;19986;48.190;16.366;2024-03-17T12:50:19;41.25;;;39.17;;
33644;SDS011;19986;48.190;16.366;2024-03-17T12:52:52;42.35;;;40.10;;
33644;SDS011;19986;48.190;16.366;2024-03-17T12:55:20;40.53;;;38.53;;
33644;SDS011;19986;48.190;16.366;2024-03-17T12:58:10;38.88;;;36.97;;
33644;SDS011;19986;48.190;16.366;2024-03-17T13:00:58;42.13;;;40.22;;
33644;SDS011;19986;48.190;16.366;2024-03-17T13:03:25;40.70;;;38.80;;
33644;SDS011;19986;48.190;16.366;2024-03-17T13:06:01;39.05;;;37.15;;
33644;SDS011;19986;48.190;16.366;2024-03-17T13:08:34;41.47;;;39.38;;
33644;SDS011;19986;48.190;16.366;2024-03-17T13:11:01;40.45;;;38.42;;
33644;SDS011;19986;48.190;16.366;2024-03-17T13:13:30;38.95;;;37.15;;
33644;SDS011;19986;48.190;16.366;2024-03-17T13:15:57;42.33;;;40.33;;
33644;SDS011;19986;48.190;16.366;2024-03-17T13:18:24;40.83;;;38.92;;
33644;SDS011;19986;48.190;16.366;2024-03-17T13:20:50;43.05;;;40.85;;
33644;SDS011;19986;48.190;16.366;2024-03-17T13:23:17;45.47;;;42.83;;
33644;SDS011;19986;48.190;16.366;2024-03-17T13:25:43;41.47;;;39.35;;
33644;SDS011;19986;48.190;16.366;2024-03-17T13:28:10;40.42;;;38.53;;
33644;SDS011;19986;48.190;16.366;2024-03-17T13:30:36;38.47;;;36.58;;
33644;SDS011;19986;48.190;16.366;2024-03-17T13:33:03;40.05;;;38.05;;
33644;SDS011;19986;48.190;16.366;2024-03-17T13:35:36;42.15;;;40.13;;
33644;SDS011;19986;48.190;16.366;2024-03-17T13:38:05;39.90;;;37.90;;
33644;SDS011;19986;48.190;16.366;2024-03-17T13:40:32;40.40;;;38.38;;
33644;SDS011;19986;48.190;16.366;2024-03-17T13:42:59;39.70;;;37.80;;
33644;SDS011;19986;48.190;16.366;2024-03-17T13:45:27;40.53;;;38.42;;
33644;SDS011;19986;48.190;16.366;2024-03-17T13:47:56;42.55;;;40.60;;
33644;SDS011;19986;48.190;16.366;2024-03-17T13:50:24;40.90;;;38.80;;
33644;SDS011;19986;48.190;16.366;2024-03-17T13:52:50;42.35;;;40.33;;
33644;SDS011;19986;48.190;16.366;2024-03-17T13:55:20;40.05;;;38.15;;
33644;SDS011;19986;48.190;16.366;2024-03-17T13:57:54;41.05;;;39.03;;
33644;SDS011;19986;48.190;16.366;2024-03-17T14:00:22;41.35;;;39.15;;
33644;SDS011;19986;48.190;16.366;2024-03-17T14:02:49;40.25;;;38.30;;
33644;SDS011;19986;48.190;16.366;2024-03-17T14:05:18;41.85;;;39.80;;
33644;SDS011;19986;48.190;16.366;2024-03-17T14:07:45;40.70;;;38.67;;
33644;SDS011;19986;48.190;16.366;2024-03-17T14:10:13;43.00;;;40.90;;
33644;SDS011;19986;48.190;16.366;2024-03-17T14:12:41;41.70;;;39.63;;
33644;SDS011;19986;48.190;16.366;2024-03-17T14:15:08;40.60;;;38.60;;
33644;SDS011;19986;48.190;16.366;2024-03-17T14:17:38;43.35;;;41.17;;
33644;SDS011;19986;48.190;16.366;2024-03-17T14:20:04;41.55;;;39.63;;
33644;SDS011;19986;48.190;16.366;2024-03-17T14:22:34;39.92;;;37.95;;